createdAt,value
2022-08-05T00:02:07.414Z,23.26
2022-08-05T00:04:35.133Z,23.20
2022-08-05T00:07:01.612Z,23.13
2022-08-05T00:09:48.057Z,23.11
2022-08-05T00:12:14.534Z,23.12
2022-08-05T00:14:41.115Z,23.16
2022-08-05T00:17:19.511Z,23.18
2022-08-05T00:20:02.439Z,23.19
2022-08-05T00:22:29.413Z,23.16
2022-08-05T00:24:57.512Z,23.16
2022-08-05T00:27:28.441Z,23.16
2022-08-05T00:30:04.153Z,23.09
2022-08-05T00:32:30.648Z,23.05
2022-08-05T00:35:06.948Z,23.04
2022-08-05T00:37:50.751Z,23.05
2022-08-05T00:40:27.235Z,23.01
2022-08-05T00:43:01.715Z,22.86
2022-08-05T00:45:38.695Z,22.83
2022-08-05T00:48:31.330Z,22.84
2022-08-05T00:50:58.197Z,22.85
2022-08-05T00:54:00.253Z,22.85
2022-08-05T00:56:11.418Z,22.88
2022-08-05T00:58:38.874Z,22.88
2022-08-05T01:01:10.558Z,22.86
2022-08-05T01:03:40.472Z,22.83
2022-08-05T01:06:13.960Z,22.82
2022-08-05T01:08:44.482Z,22.69
2022-08-05T01:11:21.778Z,22.59
2022-08-05T01:14:02.882Z,22.54
2022-08-05T01:17:06.965Z,22.48
2022-08-05T01:20:00.801Z,22.40
2022-08-05T01:22:30.812Z,22.36
2022-08-05T01:25:07.394Z,22.43
2022-08-05T01:27:50.787Z,22.45
2022-08-05T01:30:34.477Z,22.42
2022-08-05T01:33:06.272Z,22.45
2022-08-05T01:35:51.833Z,22.43
2022-08-05T01:38:26.967Z,22.41
2022-08-05T01:40:57.381Z,22.42
2022-08-05T01:43:28.031Z,22.43
2022-08-05T01:45:58.290Z,22.42
2022-08-05T01:48:35.922Z,22.44
2022-08-05T01:51:12.331Z,22.45
2022-08-05T01:53:58.301Z,22.44
2022-08-05T01:58:09.773Z,22.45
2022-08-05T01:59:19.837Z,22.41
2022-08-05T02:01:48.965Z,22.41
2022-08-05T02:04:18.297Z,22.42
2022-08-05T02:06:45.178Z,22.38
2022-08-05T02:09:12.026Z,22.36
2022-08-05T02:12:05.817Z,22.32
2022-08-05T02:15:03.420Z,22.25
2022-08-05T02:18:30.925Z,22.28
2022-08-05T02:20:24.832Z,22.31
2022-08-05T02:23:04.405Z,22.26
2022-08-05T02:25:49.397Z,22.17
2022-08-05T02:28:29.250Z,22.17
2022-08-05T02:31:06.007Z,22.14
2022-08-05T02:33:40.741Z,22.11
2022-08-05T02:36:13.476Z,22.13
2022-08-05T02:38:52.985Z,22.14
2022-08-05T02:41:23.137Z,22.14
2022-08-05T02:44:02.694Z,22.13
2022-08-05T02:46:34.044Z,22.13
2022-08-05T02:49:01.581Z,22.02
2022-08-05T02:52:02.892Z,22.02
2022-08-05T02:54:36.532Z,22.03
2022-08-05T02:57:09.814Z,22.01
2022-08-05T02:59:50.747Z,21.89
2022-08-05T03:02:21.906Z,21.80
2022-08-05T03:04:53.152Z,21.76
2022-08-05T03:07:40.296Z,21.76
2022-08-05T03:10:08.552Z,21.66
2022-08-05T03:12:40.438Z,21.63
2022-08-05T03:15:09.763Z,21.60
2022-08-05T03:17:41.775Z,21.52
2022-08-05T03:20:10.106Z,21.44
2022-08-05T03:22:39.393Z,21.39
2022-08-05T03:25:33.475Z,21.32
2022-08-05T03:28:01.667Z,21.29
2022-08-05T03:30:33.940Z,21.25
2022-08-05T03:33:01.797Z,21.21
2022-08-05T03:35:29.045Z,21.20
2022-08-05T03:38:02.656Z,21.16
2022-08-05T03:40:32.059Z,21.12
2022-08-05T03:43:01.359Z,21.02
2022-08-05T03:45:57.216Z,21.01
2022-08-05T03:48:27.483Z,20.98
2022-08-05T03:52:35.487Z,20.92
2022-08-05T03:55:50.574Z,20.84
2022-08-05T03:56:50.836Z,20.75
2022-08-05T03:59:46.490Z,20.71
2022-08-05T04:02:17.594Z,20.71
2022-08-05T04:05:05.683Z,20.74
2022-08-05T04:07:58.261Z,20.72
2022-08-05T04:10:27.720Z,20.70
2022-08-05T04:12:58.977Z,20.65
2022-08-05T04:15:27.755Z,20.54
2022-08-05T04:18:03.953Z,20.51
2022-08-05T04:20:33.958Z,20.32
2022-08-05T04:23:00.461Z,20.21
2022-08-05T04:25:56.692Z,20.24
2022-08-05T04:28:14.426Z,20.29
2022-08-05T04:30:41.682Z,20.39
2022-08-05T04:33:09.638Z,20.43
2022-08-05T04:36:16.661Z,20.44
2022-08-05T04:38:23.387Z,20.48
2022-08-05T04:41:07.338Z,20.43
2022-08-05T04:43:36.303Z,20.38
2022-08-05T04:46:04.570Z,20.38
2022-08-05T04:48:33.070Z,20.49
2022-08-05T04:51:03.722Z,20.56
2022-08-05T04:53:38.700Z,20.63
2022-08-05T04:56:33.903Z,20.69
2022-08-05T04:58:58.762Z,20.64
2022-08-05T05:02:06.057Z,20.64
2022-08-05T05:04:11.854Z,20.68
2022-08-05T05:06:44.389Z,20.70
2022-08-05T05:09:14.318Z,20.76
2022-08-05T05:11:55.446Z,20.78
2022-08-05T05:14:27.819Z,20.76
2022-08-05T05:16:58.506Z,20.74
2022-08-05T05:19:27.442Z,20.80
2022-08-05T05:22:22.839Z,20.82
2022-08-05T05:24:57.842Z,20.83
2022-08-05T05:27:45.250Z,20.82
2022-08-05T05:30:28.774Z,20.77
2022-08-05T05:33:00.548Z,20.80
2022-08-05T05:35:37.942Z,20.77
2022-08-05T05:38:13.259Z,20.77
2022-08-05T05:40:49.656Z,20.73
2022-08-05T05:43:54.151Z,20.70
2022-08-05T05:46:16.034Z,20.76
2022-08-05T05:48:46.013Z,20.77
2022-08-05T05:51:24.692Z,20.76
2022-08-05T05:53:57.976Z,20.80
2022-08-05T05:56:33.137Z,20.80
2022-08-05T05:59:03.386Z,20.75
2022-08-05T06:01:37.865Z,20.73
2022-08-05T06:04:13.052Z,20.63
2022-08-05T06:06:43.167Z,20.62
2022-08-05T06:09:17.419Z,20.64
2022-08-05T06:12:01.401Z,20.72
2022-08-05T06:14:29.148Z,20.76
2022-08-05T06:16:55.718Z,20.75
2022-08-05T06:19:35.028Z,20.75
2022-08-05T06:22:03.733Z,20.77
2022-08-05T06:24:31.825Z,20.71
2022-08-05T06:27:00.847Z,20.72
2022-08-05T06:29:48.891Z,20.77
2022-08-05T06:32:24.993Z,20.82
2022-08-05T06:34:56.254Z,20.79
2022-08-05T06:37:56.586Z,20.80
2022-08-05T06:40:14.101Z,20.66
2022-08-05T06:42:45.657Z,20.59
2022-08-05T06:45:21.055Z,20.60
2022-08-05T06:48:36.148Z,20.52
2022-08-05T06:50:37.547Z,20.57
2022-08-05T06:53:19.644Z,20.53
2022-08-05T06:55:49.259Z,20.51
2022-08-05T06:58:29.682Z,20.45
2022-08-05T07:01:02.957Z,20.48
2022-08-05T07:03:32.866Z,20.48
2022-08-05T07:06:05.818Z,20.48
2022-08-05T07:08:47.881Z,20.48
2022-08-05T07:11:22.643Z,20.41
2022-08-05T07:14:29.522Z,20.40
2022-08-05T07:17:59.045Z,20.41
2022-08-05T07:20:31.410Z,20.35
2022-08-05T07:22:34.482Z,20.42
2022-08-05T07:25:23.944Z,20.43
2022-08-05T07:27:57.305Z,20.47
2022-08-05T07:30:39.160Z,20.48
2022-08-05T07:33:10.426Z,20.54
2022-08-05T07:36:01.554Z,20.56
2022-08-05T07:38:33.720Z,20.54
2022-08-05T07:42:09.176Z,20.53
2022-08-05T07:43:58.401Z,20.51
2022-08-05T07:46:29.475Z,20.51
2022-08-05T07:49:04.927Z,20.52
2022-08-05T07:51:37.099Z,20.49
2022-08-05T07:54:08.469Z,20.48
2022-08-05T07:57:00.586Z,20.48
2022-08-05T07:59:38.223Z,20.42
2022-08-05T08:02:15.675Z,20.41
2022-08-05T08:04:44.983Z,20.34
2022-08-05T08:07:11.789Z,20.32
2022-08-05T08:09:38.528Z,20.32
2022-08-05T08:12:12.531Z,20.32
2022-08-05T08:14:47.174Z,20.29
2022-08-05T08:17:21.256Z,20.27
2022-08-05T08:20:22.838Z,20.28
2022-08-05T08:22:35.071Z,20.32
2022-08-05T08:25:03.333Z,20.32
2022-08-05T08:27:40.429Z,20.34
2022-08-05T08:30:29.580Z,20.31
2022-08-05T08:33:02.549Z,20.23
2022-08-05T08:35:35.027Z,20.16
2022-08-05T08:38:07.654Z,20.07
2022-08-05T08:40:35.315Z,20.16
2022-08-05T08:45:19.551Z,20.18
2022-08-05T08:45:54.100Z,20.20
2022-08-05T08:48:43.692Z,20.18
2022-08-05T08:51:54.554Z,20.13
2022-08-05T08:53:55.143Z,20.09
2022-08-05T08:56:23.506Z,20.06
2022-08-05T08:58:53.766Z,20.07
2022-08-05T09:01:20.549Z,20.10
2022-08-05T09:03:55.537Z,20.02
2022-08-05T09:06:30.495Z,20.09
2022-08-05T09:09:01.832Z,20.08
2022-08-05T09:11:52.748Z,20.17
2022-08-05T09:14:56.403Z,20.21
2022-08-05T09:17:08.237Z,20.26
2022-08-05T09:20:01.896Z,20.30
2022-08-05T09:22:31.054Z,20.38
2022-08-05T09:25:01.898Z,20.42
2022-08-05T09:28:04.149Z,20.48
2022-08-05T09:30:27.213Z,20.53
2022-08-05T09:33:02.048Z,20.49
2022-08-05T09:35:29.367Z,20.51
2022-08-05T09:38:12.730Z,20.45
2022-08-05T09:40:44.617Z,20.42
2022-08-05T09:43:41.963Z,20.43
2022-08-05T09:46:32.731Z,20.49
2022-08-05T09:49:18.988Z,20.55
2022-08-05T09:51:49.936Z,20.54
2022-08-05T09:54:21.423Z,20.54
2022-08-05T09:56:57.614Z,20.51
2022-08-05T09:59:28.054Z,20.49
2022-08-05T10:01:57.821Z,20.42
2022-08-05T10:04:35.811Z,20.48
2022-08-05T10:07:19.659Z,20.56
2022-08-05T10:10:14.154Z,20.56
2022-08-05T10:12:51.062Z,20.72
2022-08-05T10:15:25.719Z,20.80
2022-08-05T10:18:11.629Z,20.90
2022-08-05T10:20:41.886Z,21.00
2022-08-05T10:23:21.824Z,21.11
2022-08-05T10:26:00.017Z,21.25
2022-08-05T10:28:29.232Z,21.47
2022-08-05T10:32:48.988Z,21.74
2022-08-05T10:33:45.583Z,22.09
2022-08-05T10:36:19.036Z,22.32
2022-08-05T10:38:53.574Z,22.49
2022-08-05T10:41:46.721Z,22.67
2022-08-05T10:44:18.200Z,22.98
2022-08-05T10:46:54.707Z,23.32
2022-08-05T10:49:26.945Z,23.53
2022-08-05T10:52:00.416Z,23.72
2022-08-05T10:54:55.823Z,23.92
2022-08-05T10:57:32.287Z,24.04
2022-08-05T11:00:20.274Z,24.12
2022-08-05T11:03:25.313Z,24.43
2022-08-05T11:06:15.449Z,24.58
2022-08-05T11:09:18.605Z,24.48
2022-08-05T11:11:53.979Z,24.89
2022-08-05T11:17:59.450Z,25.55
2022-08-05T11:20:53.170Z,25.64
2022-08-05T11:23:49.893Z,25.10
2022-08-05T11:26:31.880Z,25.32
2022-08-05T11:29:11.779Z,25.58
2022-08-05T11:31:57.639Z,25.74
2022-08-05T11:34:37.564Z,25.78
2022-08-05T11:37:06.234Z,25.81
2022-08-05T11:40:00.828Z,25.89
2022-08-05T11:42:37.983Z,25.91
2022-08-05T11:45:26.803Z,26.11
2022-08-05T11:47:55.165Z,26.36
2022-08-05T11:50:22.529Z,26.69
2022-08-05T11:52:52.044Z,26.77
2022-08-05T11:55:21.069Z,26.74
2022-08-05T11:58:09.711Z,26.77
2022-08-05T12:00:38.225Z,26.82
2022-08-05T12:03:23.840Z,26.52
2022-08-05T12:06:06.481Z,26.50
2022-08-05T12:08:54.174Z,26.49
2022-08-05T12:11:21.842Z,26.14
2022-08-05T12:14:05.286Z,26.27
2022-08-05T12:16:34.265Z,26.57
2022-08-05T12:19:08.302Z,26.87
2022-08-05T12:21:39.146Z,27.36
2022-08-05T12:24:08.613Z,27.58
2022-08-05T12:26:39.121Z,27.86
2022-08-05T12:29:16.266Z,28.38
2022-08-05T12:32:04.564Z,28.45
2022-08-05T12:34:36.940Z,29.03
2022-08-05T12:37:17.217Z,28.71
2022-08-05T12:39:48.525Z,28.24
2022-08-05T12:42:21.151Z,27.68
2022-08-05T12:44:48.353Z,27.24
2022-08-05T12:47:27.573Z,26.86
2022-08-05T12:50:03.870Z,26.61
2022-08-05T12:52:38.836Z,26.34
2022-08-05T12:55:25.137Z,26.02
2022-08-05T12:58:52.339Z,25.88
2022-08-05T13:02:02.595Z,25.81
2022-08-05T13:03:42.311Z,27.04
2022-08-05T13:06:16.282Z,28.30
2022-08-05T13:08:50.784Z,28.85
2022-08-05T13:11:59.940Z,29.73
2022-08-05T13:14:19.876Z,30.27
2022-08-05T13:16:52.636Z,30.86
2022-08-05T13:19:27.398Z,30.65
2022-08-05T13:22:14.030Z,30.51
2022-08-05T13:24:57.450Z,30.43
2022-08-05T13:27:40.218Z,30.32
2022-08-05T13:30:32.995Z,29.86
2022-08-05T13:33:01.438Z,29.33
2022-08-05T13:35:42.536Z,28.82
2022-08-05T13:38:14.505Z,28.35
2022-08-05T13:40:55.232Z,28.02
2022-08-05T13:43:22.370Z,27.58
2022-08-05T13:45:51.079Z,27.10
2022-08-05T13:48:57.716Z,26.68
2022-08-05T13:51:09.557Z,26.66
2022-08-05T13:53:47.860Z,26.52
2022-08-05T13:56:18.881Z,26.36
2022-08-05T13:58:52.991Z,26.31
2022-08-05T14:01:22.729Z,26.26
2022-08-05T14:04:20.146Z,25.96
2022-08-05T14:06:49.177Z,25.64
2022-08-05T14:09:35.623Z,25.59
2022-08-05T14:12:17.997Z,25.43
2022-08-05T14:15:01.158Z,25.55
2022-08-05T14:17:59.498Z,25.58
2022-08-05T14:20:31.915Z,25.68
2022-08-05T14:23:01.233Z,25.85
2022-08-05T14:25:31.926Z,26.36
2022-08-05T14:27:58.724Z,26.56
2022-08-05T14:30:29.897Z,26.73
2022-08-05T14:32:57.857Z,27.13
2022-08-05T14:35:50.453Z,27.58
2022-08-05T14:38:33.212Z,27.83
2022-08-05T14:41:06.820Z,27.80
2022-08-05T14:44:02.718Z,27.72
2022-08-05T14:46:29.076Z,27.69
2022-08-05T14:49:06.765Z,27.68
2022-08-05T14:51:36.592Z,27.59
2022-08-05T14:54:27.823Z,27.46
2022-08-05T14:56:54.762Z,27.16
2022-08-05T14:59:21.866Z,27.24
2022-08-05T15:01:49.750Z,27.27
2022-08-05T15:04:22.363Z,27.29
2022-08-05T15:06:51.156Z,27.45
2022-08-05T15:09:51.574Z,27.37
2022-08-05T15:12:11.718Z,27.27
2022-08-05T15:14:49.609Z,27.23
2022-08-05T15:17:47.753Z,27.11
2022-08-05T15:20:06.253Z,27.43
2022-08-05T15:22:36.766Z,27.60
2022-08-05T15:25:11.629Z,27.72
2022-08-05T15:27:52.046Z,27.72
2022-08-05T15:30:19.375Z,27.67
2022-08-05T15:32:51.765Z,27.69
2022-08-05T15:35:18.277Z,27.59
2022-08-05T15:38:33.253Z,27.51
2022-08-05T15:40:59.682Z,27.50
2022-08-05T15:43:21.922Z,27.41
2022-08-05T15:46:00.705Z,27.36
2022-08-05T15:48:30.861Z,27.41
2022-08-05T15:50:58.294Z,27.41
2022-08-05T15:53:38.089Z,27.37
2022-08-05T15:56:18.955Z,27.39
2022-08-05T15:58:46.352Z,27.38
2022-08-05T16:01:16.930Z,27.50
2022-08-05T16:03:48.489Z,27.43
2022-08-05T16:06:20.238Z,27.36
2022-08-05T16:08:47.406Z,27.19
2022-08-05T16:11:14.152Z,27.27
2022-08-05T16:13:41.211Z,27.37
2022-08-05T16:16:07.758Z,27.41
2022-08-05T16:18:52.290Z,27.40
2022-08-05T16:21:19.413Z,27.66
2022-08-05T16:23:54.088Z,27.69
2022-08-05T16:26:26.384Z,28.01
2022-08-05T16:28:54.516Z,28.02
2022-08-05T16:31:21.491Z,28.22
2022-08-05T16:33:48.344Z,28.41
2022-08-05T16:36:14.807Z,28.42
2022-08-05T16:38:55.062Z,28.38
2022-08-05T16:42:14.737Z,28.28
2022-08-05T16:44:13.854Z,27.99
2022-08-05T16:46:41.393Z,27.88
2022-08-05T16:49:22.827Z,27.61
2022-08-05T16:51:51.286Z,27.51
2022-08-05T16:54:27.483Z,27.51
2022-08-05T16:56:58.647Z,27.31
2022-08-05T16:59:25.314Z,27.21
2022-08-05T17:01:55.955Z,27.01
2022-08-05T17:04:26.483Z,26.80
2022-08-05T17:06:55.305Z,26.65
2022-08-05T17:09:23.147Z,26.37
2022-08-05T17:11:54.679Z,26.24
2022-08-05T17:14:36.930Z,26.06
2022-08-05T17:17:05.516Z,25.97
2022-08-05T17:19:33.866Z,25.86
2022-08-05T17:22:00.836Z,25.75
2022-08-05T17:24:38.464Z,25.45
2022-08-05T17:27:08.105Z,25.49
2022-08-05T17:29:41.298Z,25.34
2022-08-05T17:32:17.609Z,25.26
2022-08-05T17:34:46.268Z,25.09
2022-08-05T17:37:40.648Z,24.89
2022-08-05T17:40:01.337Z,24.74
2022-08-05T17:42:30.045Z,24.66
2022-08-05T17:44:59.985Z,24.59
2022-08-05T17:47:26.952Z,24.50
2022-08-05T17:50:03.466Z,24.44
2022-08-05T17:52:33.982Z,24.36
2022-08-05T17:55:01.309Z,24.22
2022-08-05T17:57:29.669Z,24.15
2022-08-05T18:00:05.611Z,24.07
2022-08-05T18:02:35.533Z,23.97
2022-08-05T18:05:07.615Z,23.93
2022-08-05T18:07:41.495Z,23.82
2022-08-05T18:10:11.169Z,23.74
2022-08-05T18:12:41.220Z,23.70
2022-08-05T18:15:11.015Z,23.64
2022-08-05T18:18:00.523Z,23.56
2022-08-05T18:20:29.454Z,23.48
2022-08-05T18:23:00.683Z,23.48
2022-08-05T18:25:39.237Z,23.47
2022-08-05T18:28:09.437Z,23.44
2022-08-05T18:30:42.131Z,23.38
2022-08-05T18:33:17.935Z,23.32
2022-08-05T18:36:04.977Z,23.22
2022-08-05T18:38:36.769Z,23.13
2022-08-05T18:41:56.288Z,23.11
2022-08-05T18:43:54.186Z,23.11
2022-08-05T18:46:29.122Z,23.03
2022-08-05T18:49:15.638Z,23.03
2022-08-05T18:52:08.634Z,22.90
2022-08-05T18:54:36.897Z,22.92
2022-08-05T18:57:15.310Z,22.87
2022-08-05T19:00:01.664Z,22.83
2022-08-05T19:02:28.986Z,22.77
2022-08-05T19:05:02.477Z,22.58
2022-08-05T19:07:49.571Z,22.61
2022-08-05T19:10:18.514Z,22.56
2022-08-05T19:12:53.368Z,22.53
2022-08-05T19:15:56.676Z,22.31
2022-08-05T19:18:10.484Z,22.24
2022-08-05T19:20:41.375Z,22.16
2022-08-05T19:23:22.698Z,22.08
2022-08-05T19:26:01.708Z,21.91
2022-08-05T19:28:29.893Z,21.91
2022-08-05T19:30:56.859Z,21.90
2022-08-05T19:33:33.970Z,21.81
2022-08-05T19:36:06.968Z,21.71
2022-08-05T19:38:37.110Z,21.59
2022-08-05T19:41:08.997Z,21.49
2022-08-05T19:44:06.759Z,21.44
2022-08-05T19:46:30.178Z,21.35
2022-08-05T19:49:03.246Z,21.29
2022-08-05T19:51:56.330Z,21.21
2022-08-05T19:54:28.448Z,21.14
2022-08-05T19:56:59.317Z,21.10
2022-08-05T19:59:56.058Z,21.08
2022-08-05T20:02:14.460Z,21.01
2022-08-05T20:04:43.144Z,20.93
2022-08-05T20:07:13.763Z,20.87
2022-08-05T20:09:55.001Z,20.76
2022-08-05T20:12:24.789Z,20.69
2022-08-05T20:14:53.042Z,20.65
2022-08-05T20:17:23.706Z,20.59
2022-08-05T20:19:56.589Z,20.55
2022-08-05T20:22:25.017Z,20.45
2022-08-05T20:24:55.256Z,20.42
2022-08-05T20:27:26.890Z,20.34
2022-08-05T20:29:58.401Z,20.30
2022-08-05T20:32:26.214Z,20.25
2022-08-05T20:34:52.892Z,20.25
2022-08-05T20:38:06.607Z,20.22
2022-08-05T20:40:07.178Z,20.22
2022-08-05T20:42:34.739Z,20.18
2022-08-05T20:45:02.192Z,20.22
2022-08-05T20:47:31.787Z,20.20
2022-08-05T20:49:59.645Z,20.19
2022-08-05T20:52:29.709Z,20.17
2022-08-05T20:55:54.977Z,20.14
2022-08-05T20:57:44.912Z,20.08
2022-08-05T21:00:41.591Z,20.09
2022-08-05T21:03:06.178Z,20.07
2022-08-05T21:05:41.954Z,19.98
2022-08-05T21:08:20.015Z,19.89
2022-08-05T21:10:49.479Z,19.92
2022-08-05T21:13:26.452Z,19.85
2022-08-05T21:16:03.741Z,19.78
2022-08-05T21:18:30.334Z,19.74
2022-08-05T21:20:57.954Z,19.64
2022-08-05T21:23:24.775Z,19.54
2022-08-05T21:25:51.438Z,19.50
2022-08-05T21:28:23.592Z,19.42
2022-08-05T21:30:50.721Z,19.37
2022-08-05T21:33:22.415Z,19.28
2022-08-05T21:35:58.894Z,19.18
2022-08-05T21:38:26.752Z,18.99
2022-08-05T21:40:53.636Z,18.98
2022-08-05T21:43:24.594Z,18.93
2022-08-05T21:45:56.978Z,18.73
2022-08-05T21:48:24.670Z,18.62
2022-08-05T21:50:54.072Z,18.51
2022-08-05T21:53:21.028Z,18.35
2022-08-05T21:56:04.865Z,18.27
2022-08-05T21:58:34.036Z,18.13
2022-08-05T22:01:00.929Z,18.02
2022-08-05T22:03:52.768Z,17.98
2022-08-05T22:06:16.157Z,17.90
2022-08-05T22:08:51.860Z,17.82
2022-08-05T22:11:19.240Z,17.75
2022-08-05T22:14:34.176Z,17.68
2022-08-05T22:16:51.542Z,17.64
2022-08-05T22:20:02.225Z,17.71
2022-08-05T22:22:08.668Z,17.69
2022-08-05T22:24:55.974Z,17.71
2022-08-05T22:28:08.391Z,17.70
2022-08-05T22:30:35.175Z,17.76
2022-08-05T22:33:02.796Z,17.73
2022-08-05T22:35:38.639Z,17.75
2022-08-05T22:38:15.599Z,17.75
2022-08-05T22:40:42.119Z,17.71
2022-08-05T22:43:17.185Z,17.68
2022-08-05T22:46:11.864Z,17.64
2022-08-05T22:48:39.637Z,17.57
2022-08-05T22:51:07.570Z,17.52
2022-08-05T22:53:35.880Z,17.46
2022-08-05T22:56:02.604Z,17.45
2022-08-05T22:58:29.116Z,17.54
2022-08-05T23:00:56.908Z,17.56
2022-08-05T23:03:57.766Z,17.54
2022-08-05T23:06:10.273Z,17.44
2022-08-05T23:08:36.766Z,17.54
2022-08-05T23:11:03.267Z,17.54
2022-08-05T23:13:29.736Z,17.54
2022-08-05T23:15:56.338Z,17.55
2022-08-05T23:18:25.995Z,17.47
2022-08-05T23:20:54.355Z,17.41
2022-08-05T23:23:20.835Z,17.38
2022-08-05T23:25:53.250Z,17.34
2022-08-05T23:28:24.043Z,17.32
2022-08-05T23:30:55.813Z,17.29
2022-08-05T23:34:05.615Z,17.17
2022-08-05T23:36:20.136Z,17.12
2022-08-05T23:38:46.603Z,17.07
2022-08-05T23:41:13.131Z,16.99
2022-08-05T23:44:05.867Z,16.72
2022-08-05T23:46:29.720Z,16.45
2022-08-05T23:49:00.919Z,16.27
2022-08-05T23:51:53.385Z,16.12
2022-08-05T23:54:34.068Z,16.01
2022-08-05T23:57:05.715Z,16.03
